Ruthven, Iowa
Current Conditions -  °F | °C
As of 7:53 PM on Friday 28 Nov 2014 (Local Time) from KSPW Reporting Station
Clear Clear  
Wind Chill: 14°   Ceiling: Unl
Heat Index: 23°   Visibility: 7mi
Dew Point: 20°   Wind: 8mph
Humidity: 88%   Direction: 110°ESE
Pressure: 29.68"   Gusts: NA
Location:  43.13°N, 94.9°W
Report Text: KSPW 290153Z AUTO 11007KT 7SM CLR M05/M07 A2968 RMK AO2 SLP071 T10501067 TSNO
Loading
Personal Weather Stations






























Interactive Weather Map New forecast layout! Learn more

10-Day Weather Forecast

Advertisements
Track Severe Weather on mobile